createdAt,value
2018-02-06T00:01:53.529Z,102379.50
2018-02-06T00:04:21.352Z,102372.37
2018-02-06T00:06:49.121Z,102372.16
2018-02-06T00:09:16.969Z,102374.89
2018-02-06T00:11:44.732Z,102374.51
2018-02-06T00:14:12.528Z,102365.00
2018-02-06T00:16:40.265Z,102367.81
2018-02-06T00:19:08.127Z,102368.76
2018-02-06T00:21:35.947Z,102362.41
2018-02-06T00:24:03.775Z,102354.91
2018-02-06T00:26:31.534Z,102357.72
2018-02-06T00:28:59.362Z,102345.39
2018-02-06T00:31:27.155Z,102349.19
2018-02-06T00:33:54.931Z,102340.23
2018-02-06T00:36:22.699Z,102340.27
2018-02-06T00:38:50.516Z,102339.34
2018-02-06T00:41:18.312Z,102334.17
2018-02-06T00:43:46.108Z,102342.38
2018-02-06T00:46:13.892Z,102339.78
2018-02-06T00:48:41.808Z,102336.11
2018-02-06T00:51:09.572Z,102332.45
2018-02-06T00:53:37.430Z,102327.63
2018-02-06T00:56:05.187Z,102319.03
2018-02-06T00:58:33.015Z,102329.11
2018-02-06T01:01:00.805Z,102320.06
2018-02-06T01:03:28.644Z,102309.28
2018-02-06T01:05:56.400Z,102305.11
2018-02-06T01:08:24.228Z,102304.77
2018-02-06T01:10:51.996Z,102301.61
2018-02-06T01:13:19.797Z,102304.13
2018-02-06T01:15:47.548Z,102299.86
2018-02-06T01:18:15.371Z,102290.81
2018-02-06T01:20:43.130Z,102291.41
2018-02-06T01:23:10.987Z,102281.09
2018-02-06T01:25:38.761Z,102276.20
2018-02-06T01:28:06.564Z,102272.66
2018-02-06T01:30:34.348Z,102270.95
2018-02-06T01:33:02.222Z,102264.22
2018-02-06T01:35:29.975Z,102265.41
2018-02-06T01:37:57.847Z,102258.73
2018-02-06T01:40:25.606Z,102257.06
2018-02-06T01:42:53.335Z,102255.79
2018-02-06T01:45:21.236Z,102247.52
2018-02-06T01:47:49.058Z,102244.80
2018-02-06T01:50:16.851Z,102239.43
2018-02-06T01:52:44.612Z,102234.02
2018-02-06T01:55:12.453Z,102233.38
2018-02-06T01:57:40.272Z,102237.05
2018-02-06T02:00:08.066Z,102234.84
2018-02-06T02:02:35.856Z,102222.34
2018-02-06T02:05:03.682Z,102219.95
2018-02-06T02:07:31.448Z,102217.95
2018-02-06T02:09:59.219Z,102220.56
2018-02-06T02:12:27.027Z,102217.83
2018-02-06T02:14:54.815Z,102214.11
2018-02-06T02:17:22.595Z,102213.69
2018-02-06T02:19:50.386Z,102203.89
2018-02-06T02:22:18.115Z,102199.59
2018-02-06T02:24:45.884Z,102201.17
2018-02-06T02:27:13.681Z,102196.75
2018-02-06T02:29:41.505Z,102192.41
2018-02-06T02:32:09.242Z,102193.55
2018-02-06T02:34:37.015Z,102192.23
2018-02-06T02:37:04.870Z,102185.37
2018-02-06T02:39:32.708Z,102193.08
2018-02-06T04:40:11.951Z,102076.31
2018-02-06T04:42:39.725Z,102070.94
2018-02-06T04:45:07.525Z,102074.75
2018-02-06T04:47:35.311Z,102066.96
2018-02-06T04:50:03.177Z,102066.74
2018-02-06T04:52:30.957Z,102077.28
2018-02-06T04:54:58.847Z,102066.40
2018-02-06T04:57:26.627Z,102065.84
2018-02-06T04:59:54.491Z,102071.66
2018-02-06T05:02:22.251Z,102061.50
2018-02-06T05:04:50.014Z,102067.23
2018-02-06T05:07:17.881Z,102070.44
2018-02-06T05:09:45.665Z,102061.20
2018-02-06T05:12:13.480Z,102065.64
2018-02-06T05:14:41.341Z,102059.50
2018-02-06T05:17:09.186Z,102066.63
2018-02-06T05:19:36.970Z,102062.08
2018-02-06T05:22:04.808Z,102063.52
2018-02-06T05:24:32.590Z,102059.87
2018-02-06T05:27:00.462Z,102058.48
2018-02-06T05:29:28.232Z,102054.64
2018-02-06T05:31:56.078Z,102056.52
2018-02-06T05:34:23.854Z,102048.70
2018-02-06T05:36:51.663Z,102043.14
2018-02-06T05:39:19.499Z,102043.27
2018-02-06T05:41:47.319Z,102039.55
2018-02-06T05:44:15.129Z,102039.42
2018-02-06T05:46:42.972Z,102042.42
2018-02-06T05:49:10.744Z,102035.80
2018-02-06T05:51:38.567Z,102038.20
2018-02-06T05:54:06.351Z,102041.58
2018-02-06T05:56:34.200Z,102038.99
2018-02-06T05:59:01.999Z,102035.70
2018-02-06T06:01:29.812Z,102030.83
2018-02-06T06:03:57.655Z,102030.77
2018-02-06T06:06:25.489Z,102022.72
2018-02-06T06:08:53.267Z,102024.08
2018-02-06T06:11:21.084Z,102023.03
2018-02-06T06:13:48.874Z,102023.50
2018-02-06T06:16:16.703Z,102015.28
2018-02-06T06:18:44.527Z,102010.18
2018-02-06T06:21:12.352Z,102005.05
2018-02-06T06:23:40.229Z,102002.17
2018-02-06T06:26:08.137Z,102002.22
2018-02-06T06:28:35.944Z,102004.49
2018-02-06T06:31:03.836Z,101998.78
2018-02-06T06:33:31.682Z,101993.38
2018-02-06T06:35:59.555Z,101996.13
2018-02-06T06:38:27.402Z,101996.66
2018-02-06T06:40:55.320Z,101996.25
2018-02-06T06:43:23.164Z,101997.23
2018-02-06T06:45:51.046Z,101997.49
2018-02-06T06:48:18.864Z,101992.48
2018-02-06T06:50:46.715Z,101992.27
2018-02-06T06:53:14.607Z,101992.78
2018-02-06T06:55:42.411Z,101986.63
2018-02-06T06:58:10.314Z,101984.34
2018-02-06T07:00:38.126Z,101981.20
2018-02-06T07:03:05.990Z,101981.54
2018-02-06T07:05:33.844Z,101985.27
2018-02-06T07:08:01.698Z,101986.60
2018-02-06T07:10:29.519Z,101984.45
2018-02-06T07:12:57.440Z,101977.80
2018-02-06T07:15:25.265Z,101982.53
2018-02-06T07:17:53.153Z,101977.92
2018-02-06T07:20:21.046Z,101979.01
2018-02-06T07:22:48.923Z,101971.04
2018-02-06T07:25:16.756Z,101971.22
2018-02-06T07:27:44.628Z,101973.58
2018-02-06T07:30:12.468Z,101976.80
2018-02-06T07:32:40.355Z,101977.77
2018-02-06T07:35:08.212Z,101966.02
2018-02-06T07:37:36.112Z,101969.90
2018-02-06T07:40:04.026Z,101968.36
2018-02-06T07:42:31.941Z,101957.65
2018-02-06T07:44:59.797Z,101959.22
2018-02-06T07:47:27.719Z,101959.70
2018-02-06T07:49:55.573Z,101965.00
2018-02-06T07:52:23.479Z,101954.45
2018-02-06T07:54:51.319Z,101956.61
2018-02-06T07:57:19.186Z,101951.92
2018-02-06T07:59:47.027Z,101952.65
2018-02-06T08:02:14.967Z,101953.05
2018-02-06T08:04:42.832Z,101946.30
2018-02-06T08:07:10.716Z,101945.53
2018-02-06T08:09:38.556Z,101942.49
2018-02-06T08:12:06.451Z,101941.50
2018-02-06T08:14:34.267Z,101940.28
2018-02-06T08:17:02.137Z,101939.95
2018-02-06T08:19:29.989Z,101942.37
2018-02-06T08:21:57.853Z,101941.13
2018-02-06T08:24:25.691Z,101937.78
2018-02-06T08:26:53.656Z,101942.20
2018-02-06T08:29:21.607Z,101942.45
2018-02-06T08:31:49.528Z,101936.77
2018-02-06T08:34:17.312Z,101940.95
2018-02-06T08:36:45.260Z,101939.19
2018-02-06T08:39:13.200Z,101939.59
2018-02-06T08:41:41.102Z,101936.75
2018-02-06T08:44:09.059Z,101938.23
2018-02-06T08:46:36.991Z,101937.59
2018-02-06T08:49:04.895Z,101938.02
2018-02-06T08:51:32.768Z,101929.63
2018-02-06T08:54:00.681Z,101927.64
2018-02-06T08:56:28.532Z,101926.89
2018-02-06T08:58:56.520Z,101926.02
2018-02-06T09:01:24.534Z,101923.73
2018-02-06T09:03:52.474Z,101928.65
2018-02-06T09:06:20.407Z,101920.03
2018-02-06T09:08:48.364Z,101924.87
2018-02-06T09:11:16.259Z,101918.96
2018-02-06T09:13:44.387Z,101919.48
2018-02-06T09:16:12.156Z,101913.88
2018-02-06T09:18:40.093Z,101919.77
2018-02-06T09:21:08.148Z,101911.66
2018-02-06T09:23:36.055Z,101915.17
2018-02-06T09:26:03.886Z,101906.33
2018-02-06T09:28:31.804Z,101904.53
2018-02-06T09:30:59.859Z,101902.31
2018-02-06T09:33:27.823Z,101899.67
2018-02-06T09:35:55.825Z,101896.75
2018-02-06T09:38:23.709Z,101893.17
2018-02-06T09:40:51.579Z,101896.55
2018-02-06T09:43:19.451Z,101889.80
2018-02-06T09:45:47.249Z,101894.19
2018-02-06T09:48:15.143Z,101891.84
2018-02-06T09:50:42.988Z,101893.97
2018-02-06T09:53:10.956Z,101891.70
2018-02-06T09:55:38.815Z,101883.72
2018-02-06T09:58:06.667Z,101879.20
2018-02-06T10:00:34.528Z,101883.02
2018-02-06T10:03:02.400Z,101878.36
2018-02-06T10:05:30.242Z,101865.88
2018-02-06T10:07:58.107Z,101869.06
2018-02-06T10:10:25.956Z,101867.63
2018-02-06T10:12:53.819Z,101857.53
2018-02-06T10:15:21.664Z,101857.40
2018-02-06T10:17:49.478Z,101856.05
2018-02-06T10:20:17.316Z,101849.14
2018-02-06T10:22:45.143Z,101848.36
2018-02-06T10:25:13.059Z,101838.95
2018-02-06T10:27:40.860Z,101828.70
2018-02-06T10:30:08.765Z,101829.20
2018-02-06T10:32:36.675Z,101822.26
2018-02-06T10:35:04.538Z,101819.50
2018-02-06T10:37:32.366Z,101821.23
2018-02-06T10:40:00.251Z,101821.73
2018-02-06T10:42:28.041Z,101815.42
2018-02-06T10:44:55.882Z,101811.26
2018-02-06T10:47:23.677Z,101811.41
2018-02-06T10:49:51.544Z,101811.91
2018-02-06T10:52:19.350Z,101811.59
2018-02-06T10:54:47.235Z,101802.70
2018-02-06T10:57:15.083Z,101801.74
2018-02-06T10:59:43.132Z,101802.41
2018-02-06T11:02:10.962Z,101788.25
2018-02-06T11:04:38.914Z,101791.81
2018-02-06T11:07:06.761Z,101785.26
2018-02-06T11:09:34.677Z,101782.84
2018-02-06T11:12:02.491Z,101777.66
2018-02-06T11:14:30.319Z,101778.11
2018-02-06T11:16:58.152Z,101773.19
2018-02-06T11:19:26.017Z,101769.02
2018-02-06T11:21:53.854Z,101771.64
2018-02-06T11:24:21.689Z,101767.44
2018-02-06T11:26:49.502Z,101766.45
2018-02-06T11:29:17.410Z,101763.65
2018-02-06T11:31:45.248Z,101749.42
2018-02-06T11:34:13.113Z,101748.05
2018-02-06T11:36:40.922Z,101751.48
2018-02-06T11:39:08.770Z,101748.22
2018-02-06T11:41:36.639Z,101749.88
2018-02-06T11:44:04.478Z,101741.81
2018-02-06T11:46:32.288Z,101743.23
2018-02-06T11:49:00.204Z,101743.34
2018-02-06T11:51:28.039Z,101735.26
2018-02-06T11:53:55.895Z,101733.20
2018-02-06T11:56:23.720Z,101728.84
2018-02-06T11:58:51.595Z,101725.97
2018-02-06T12:01:19.420Z,101721.42
2018-02-06T12:03:47.271Z,101718.19
2018-02-06T12:06:15.192Z,101720.73
2018-02-06T12:08:43.035Z,101715.00
2018-02-06T12:11:10.939Z,101709.08
2018-02-06T12:13:38.758Z,101706.38
2018-02-06T12:16:06.664Z,101704.78
2018-02-06T12:18:34.471Z,101703.09
2018-02-06T12:21:02.341Z,101696.27
2018-02-06T12:23:30.129Z,101686.80
2018-02-06T12:25:57.976Z,101690.80
2018-02-06T12:28:25.794Z,101683.35
2018-02-06T12:30:53.670Z,101677.81
2018-02-06T12:33:21.525Z,101689.34
2018-02-06T12:35:49.423Z,101671.63
2018-02-06T12:38:17.324Z,101669.77
2018-02-06T12:40:48.045Z,101665.36
2018-02-06T12:43:15.798Z,101661.65
2018-02-06T12:45:43.700Z,101659.88
2018-02-06T12:48:11.558Z,101660.63
2018-02-06T12:50:39.496Z,101660.72
2018-02-06T12:53:07.277Z,101659.83
2018-02-06T12:55:35.101Z,101664.16
2018-02-06T12:58:02.979Z,101656.87
2018-02-06T13:00:30.817Z,101659.94
2018-02-06T13:02:58.635Z,101658.38
2018-02-06T13:05:26.724Z,101649.07
2018-02-06T13:07:54.510Z,101653.95
2018-02-06T13:10:22.361Z,101634.02
2018-02-06T13:12:50.211Z,101635.46
2018-02-06T13:15:18.015Z,101638.27
2018-02-06T13:17:45.779Z,101638.66
2018-02-06T13:20:13.607Z,101634.69
2018-02-06T13:22:41.495Z,101624.50
2018-02-06T13:25:09.309Z,101622.00
2018-02-06T13:27:37.120Z,101621.60
2018-02-06T13:30:04.970Z,101616.13
2018-02-06T13:32:32.824Z,101612.17
2018-02-06T13:35:00.662Z,101608.86
2018-02-06T13:37:28.444Z,101605.21
2018-02-06T13:39:56.334Z,101600.57
2018-02-06T13:42:24.099Z,101598.64
2018-02-06T13:44:51.959Z,101594.66
2018-02-06T13:47:19.693Z,101589.75
2018-02-06T13:49:47.689Z,101583.22
2018-02-06T13:52:15.635Z,101583.53
2018-02-06T13:54:43.489Z,101587.36
2018-02-06T13:57:11.513Z,101582.63
2018-02-06T13:59:39.340Z,101578.33
2018-02-06T14:02:07.200Z,101581.72
2018-02-06T14:04:34.944Z,101573.86
2018-02-06T14:07:02.857Z,101572.24
2018-02-06T14:09:30.649Z,101572.21
2018-02-06T14:11:58.572Z,101566.94
2018-02-06T14:14:26.300Z,101567.72
2018-02-06T14:16:54.208Z,101569.55
2018-02-06T14:19:22.041Z,101566.74
2018-02-06T14:21:49.982Z,101567.80
2018-02-06T14:24:17.817Z,101562.45
2018-02-06T14:26:45.840Z,101563.39
2018-02-06T14:29:13.710Z,101560.36
2018-02-06T14:31:41.659Z,101567.77
2018-02-06T14:34:09.564Z,101567.97
2018-02-06T14:36:37.619Z,101560.17
2018-02-06T14:39:05.539Z,101558.77
2018-02-06T14:41:33.659Z,101552.38
2018-02-06T14:44:01.532Z,101555.44
2018-02-06T14:46:29.352Z,101547.78
2018-02-06T14:48:57.187Z,101553.78
2018-02-06T14:51:25.095Z,101550.16
2018-02-06T14:53:52.997Z,101545.21
2018-02-06T14:56:21.002Z,101548.47
2018-02-06T14:58:48.892Z,101548.74
2018-02-06T15:01:16.722Z,101547.55
2018-02-06T15:03:44.733Z,101540.97
2018-02-06T15:06:12.691Z,101540.34
2018-02-06T15:08:40.525Z,101536.14
2018-02-06T15:11:08.457Z,101539.27
2018-02-06T15:13:36.315Z,101533.25
2018-02-06T15:16:04.539Z,101533.36
2018-02-06T15:18:33.445Z,101529.88
2018-02-06T15:21:02.414Z,101531.59
2018-02-06T15:23:32.308Z,101527.47
2018-02-06T15:26:05.133Z,101529.20
2018-02-06T15:28:40.424Z,101532.02
2018-02-06T15:31:08.235Z,101521.02
2018-02-06T15:33:36.044Z,101526.22
2018-02-06T15:36:03.933Z,101525.64
2018-02-06T15:38:31.696Z,101523.88
2018-02-06T15:40:59.518Z,101523.70
2018-02-06T15:43:27.336Z,101528.36
2018-02-06T15:45:55.206Z,101517.27
2018-02-06T15:48:22.989Z,101518.89
2018-02-06T15:50:50.946Z,101525.05
2018-02-06T15:53:19.672Z,101523.59
2018-02-06T15:55:48.843Z,101522.77
2018-02-06T15:58:16.707Z,101522.92
2018-02-06T16:00:46.113Z,101519.31
2018-02-06T16:03:14.131Z,101521.35
2018-02-06T16:05:41.961Z,101522.69
2018-02-06T16:08:09.865Z,101518.39
2018-02-06T16:10:37.731Z,101526.65
2018-02-06T16:13:05.642Z,101524.14
2018-02-06T16:15:33.408Z,101527.02
2018-02-06T16:18:01.330Z,101533.73
2018-02-06T16:20:29.962Z,101530.82
2018-02-06T16:22:58.735Z,101529.08
2018-02-06T16:25:27.164Z,101524.64
2018-02-06T16:27:55.504Z,101524.16
2018-02-06T16:30:23.314Z,101520.09
2018-02-06T16:32:51.201Z,101523.49
2018-02-06T16:35:18.993Z,101522.92
2018-02-06T16:37:46.768Z,101516.95
2018-02-06T16:40:14.570Z,101525.47
2018-02-06T16:42:42.366Z,101530.80
2018-02-06T16:45:10.186Z,101534.55
2018-02-06T16:47:38.004Z,101535.03
2018-02-06T16:50:05.783Z,101534.72
2018-02-06T16:52:33.624Z,101531.64
2018-02-06T16:55:01.393Z,101536.16
2018-02-06T16:57:29.184Z,101522.69
2018-02-06T16:59:56.980Z,101523.48
2018-02-06T17:02:36.678Z,101524.81
2018-02-06T17:05:04.459Z,101529.99
2018-02-06T17:07:32.239Z,101519.80
2018-02-06T17:10:00.046Z,101526.66
2018-02-06T17:12:27.897Z,101536.55
2018-02-06T17:14:55.698Z,101520.59
2018-02-06T17:17:23.500Z,101529.92
2018-02-06T17:19:51.505Z,101531.95
2018-02-06T17:22:19.302Z,101532.92
2018-02-06T17:24:47.132Z,101534.87
2018-02-06T17:27:15.087Z,101535.81
2018-02-06T17:29:42.888Z,101530.69
2018-02-06T17:32:18.455Z,101528.48
2018-02-06T17:34:46.252Z,101527.77
2018-02-06T17:37:14.079Z,101525.28
2018-02-06T17:39:41.921Z,101525.27
2018-02-06T17:42:09.826Z,101528.19
2018-02-06T17:44:37.614Z,101517.98
2018-02-06T17:47:05.439Z,101521.09
2018-02-06T17:49:33.198Z,101516.39
2018-02-06T17:52:01.055Z,101514.58
2018-02-06T17:54:28.891Z,101511.17
2018-02-06T17:56:56.694Z,101515.04
2018-02-06T17:59:24.545Z,101509.49
2018-02-06T18:01:52.327Z,101510.20
2018-02-06T18:04:20.165Z,101513.16
2018-02-06T18:06:47.979Z,101513.48
2018-02-06T18:09:15.826Z,101511.70
2018-02-06T18:11:43.592Z,101509.00
2018-02-06T18:14:11.416Z,101514.45
2018-02-06T18:16:39.171Z,101507.97
2018-02-06T18:19:07.282Z,101514.65
2018-02-06T18:21:35.061Z,101513.02
2018-02-06T18:26:43.380Z,101517.53
2018-02-06T18:29:11.204Z,101518.25
2018-02-06T18:31:38.962Z,101517.75
2018-02-06T18:34:06.784Z,101513.25
2018-02-06T18:36:34.686Z,101520.16
2018-02-06T18:39:02.521Z,101523.50
2018-02-06T18:41:30.301Z,101519.63
2018-02-06T18:43:58.141Z,101520.90
2018-02-06T18:46:25.944Z,101513.34
2018-02-06T18:48:53.860Z,101511.45
2018-02-06T18:51:21.666Z,101515.96
2018-02-06T18:53:49.549Z,101524.05
2018-02-06T18:56:17.320Z,101522.91
2018-02-06T18:58:45.142Z,101520.81
2018-02-06T19:01:12.923Z,101528.69
2018-02-06T19:03:40.731Z,101523.34
2018-02-06T19:06:08.510Z,101526.39
2018-02-06T19:08:36.342Z,101526.69
2018-02-06T19:11:04.119Z,101525.66
2018-02-06T19:13:31.961Z,101522.41
2018-02-06T19:15:59.864Z,101528.69
2018-02-06T19:18:27.793Z,101525.03
2018-02-06T19:20:55.590Z,101533.22
2018-02-06T19:23:23.411Z,101538.32
2018-02-06T19:25:51.224Z,101540.64
2018-02-06T19:28:19.047Z,101533.08
2018-02-06T19:30:46.858Z,101535.89
2018-02-06T19:33:14.647Z,101542.05
2018-02-06T19:35:42.425Z,101543.41
2018-02-06T19:38:11.387Z,101545.93
2018-02-06T19:40:39.184Z,101544.88
2018-02-06T19:43:06.959Z,101545.37
2018-02-06T19:45:34.780Z,101551.97
2018-02-06T19:48:02.570Z,101552.98
2018-02-06T19:50:30.481Z,101547.13
2018-02-06T19:52:58.249Z,101546.22
2018-02-06T19:55:26.120Z,101538.92
2018-02-06T19:57:53.908Z,101543.43
2018-02-06T20:00:21.740Z,101546.59
2018-02-06T20:02:49.670Z,101547.84
2018-02-06T20:05:17.484Z,101539.91
2018-02-06T20:07:45.276Z,101546.08
2018-02-06T20:10:13.134Z,101537.19
2018-02-06T20:12:40.907Z,101541.98
2018-02-06T20:15:08.750Z,101548.86
2018-02-06T20:17:36.555Z,101546.16
2018-02-06T20:20:04.363Z,101545.28
2018-02-06T20:22:32.159Z,101555.20
2018-02-06T20:24:59.946Z,101550.59
2018-02-06T20:27:27.841Z,101550.50
2018-02-06T20:29:55.685Z,101548.63
2018-02-06T20:32:23.513Z,101538.91
2018-02-06T20:34:51.318Z,101537.55
2018-02-06T20:37:19.106Z,101542.70
2018-02-06T20:39:47.016Z,101541.72
2018-02-06T20:42:14.814Z,101547.06
2018-02-06T20:44:42.625Z,101542.48
2018-02-06T20:47:10.409Z,101547.56
2018-02-06T20:49:38.256Z,101547.80
2018-02-06T20:52:06.060Z,101553.79
2018-02-06T20:54:33.898Z,101550.78
2018-02-06T20:57:01.769Z,101546.98
2018-02-06T20:59:29.607Z,101552.92
2018-02-06T21:01:57.451Z,101550.81
2018-02-06T21:04:25.445Z,101553.34
2018-02-06T21:06:53.236Z,101559.50
2018-02-06T21:09:21.107Z,101551.77
2018-02-06T21:11:48.929Z,101556.91
2018-02-06T21:14:16.730Z,101547.41
2018-02-06T21:16:44.606Z,101544.69
2018-02-06T21:19:12.476Z,101546.31
2018-02-06T21:21:40.346Z,101544.47
2018-02-06T21:24:08.206Z,101541.06
2018-02-06T21:26:36.033Z,101537.55
2018-02-06T21:29:03.794Z,101537.77
2018-02-06T21:31:31.636Z,101541.59
2018-02-06T21:33:59.416Z,101531.34
2018-02-06T21:36:27.209Z,101535.92
2018-02-06T21:38:55.016Z,101540.48
2018-02-06T21:41:22.818Z,101541.63
2018-02-06T21:43:50.644Z,101548.70
2018-02-06T21:46:18.421Z,101542.57
2018-02-06T21:48:46.204Z,101542.03
2018-02-06T21:51:14.057Z,101552.01
2018-02-06T21:53:41.825Z,101547.89
2018-02-06T21:56:09.702Z,101551.75
2018-02-06T21:58:37.508Z,101547.91
2018-02-06T22:01:05.359Z,101545.28
2018-02-06T22:03:33.203Z,101537.55
2018-02-06T22:06:01.272Z,101537.67
2018-02-06T22:08:29.002Z,101541.34
2018-02-06T22:10:56.845Z,101534.45
2018-02-06T22:13:24.721Z,101538.84
2018-02-06T22:15:52.528Z,101538.95
2018-02-06T22:18:20.316Z,101534.36
2018-02-06T22:20:48.168Z,101526.31
2018-02-06T22:23:15.963Z,101532.97
2018-02-06T22:25:43.832Z,101528.46
2018-02-06T22:28:11.665Z,101525.08
2018-02-06T22:30:39.508Z,101523.73
2018-02-06T22:33:07.276Z,101530.21
2018-02-06T22:35:35.088Z,101525.89
2018-02-06T22:38:03.063Z,101529.64
2018-02-06T22:40:30.905Z,101525.25
2018-02-06T22:42:58.715Z,101535.28
2018-02-06T22:45:26.645Z,101533.08
2018-02-06T22:47:54.483Z,101532.75
2018-02-06T22:50:22.312Z,101531.63
2018-02-06T22:52:50.058Z,101531.85
2018-02-06T22:55:17.877Z,101529.64
2018-02-06T22:57:45.644Z,101528.66
2018-02-06T23:00:23.407Z,101526.46
2018-02-06T23:02:51.188Z,101520.28
2018-02-06T23:05:19.050Z,101516.95
2018-02-06T23:07:46.840Z,101516.27
2018-02-06T23:10:14.688Z,101519.00
2018-02-06T23:12:42.446Z,101514.00
2018-02-06T23:15:10.267Z,101518.80
2018-02-06T23:17:38.031Z,101520.27
2018-02-06T23:20:06.091Z,101522.98
2018-02-06T23:22:33.925Z,101519.72
2018-02-06T23:25:01.706Z,101521.99
2018-02-06T23:27:29.624Z,101530.27
2018-02-06T23:29:57.606Z,101529.21
2018-02-06T23:32:25.403Z,101525.44
2018-02-06T23:34:53.194Z,101527.20
2018-02-06T23:37:21.020Z,101519.94
2018-02-06T23:39:48.771Z,101520.95
2018-02-06T23:42:16.621Z,101519.83
2018-02-06T23:44:44.399Z,101519.84
2018-02-06T23:47:12.217Z,101528.53
2018-02-06T23:49:40.161Z,101528.87
2018-02-06T23:52:14.899Z,101532.89
2018-02-06T23:54:42.665Z,101525.47
2018-02-06T23:57:10.496Z,101525.59
2018-02-06T23:59:38.286Z,101527.27
